createdAt,value
2022-10-02T00:02:11.084Z,2.90
2022-10-02T00:07:14.460Z,3.17
2022-10-02T00:17:22.130Z,8.73
2022-10-02T00:29:16.444Z,6.50
2022-10-02T00:36:09.463Z,2.17
2022-10-02T00:41:29.951Z,3.22
2022-10-02T00:46:59.194Z,2.90
2022-10-02T00:52:39.602Z,2.75
2022-10-02T00:58:10.035Z,2.70
2022-10-02T01:03:38.935Z,2.35
2022-10-02T01:08:40.255Z,2.55
2022-10-02T01:13:41.825Z,2.97
2022-10-02T01:18:47.667Z,2.62
2022-10-02T01:24:08.228Z,2.75
2022-10-02T01:29:08.991Z,2.67
2022-10-02T01:34:10.217Z,6.12
2022-10-02T01:39:11.404Z,2.95
2022-10-02T01:44:14.193Z,2.90
2022-10-02T01:54:39.045Z,2.97
2022-10-02T01:59:50.969Z,3.00
2022-10-02T02:09:45.460Z,3.20
2022-10-02T02:15:04.233Z,2.87
2022-10-02T02:20:12.882Z,2.62
2022-10-02T02:25:18.345Z,2.90
2022-10-02T02:30:20.974Z,2.80
2022-10-02T02:36:11.908Z,2.80
2022-10-02T02:41:18.764Z,2.33
2022-10-02T02:46:33.186Z,2.90
2022-10-02T02:51:41.965Z,3.12
2022-10-02T02:56:44.966Z,3.17
2022-10-02T03:01:45.935Z,4.97
2022-10-02T03:06:50.997Z,3.03
2022-10-02T03:12:14.654Z,3.20
2022-10-02T03:18:25.322Z,3.85
2022-10-02T03:24:49.232Z,3.72
2022-10-02T03:30:01.472Z,3.80
2022-10-02T03:35:05.179Z,3.37
2022-10-02T03:40:07.445Z,3.70
2022-10-02T03:45:09.869Z,3.70
2022-10-02T03:50:14.223Z,3.53
2022-10-02T03:55:36.299Z,4.10
2022-10-02T04:00:42.611Z,3.53
2022-10-02T04:06:02.124Z,3.67
2022-10-02T04:12:39.013Z,4.25
2022-10-02T04:17:47.095Z,3.40
2022-10-02T04:23:06.187Z,3.60
2022-10-02T04:28:14.555Z,3.50
2022-10-02T04:33:18.594Z,3.58
2022-10-02T04:40:32.409Z,4.37
2022-10-02T04:46:09.665Z,3.07
2022-10-02T04:51:34.446Z,4.60
2022-10-02T04:57:02.938Z,3.20
2022-10-02T05:03:01.762Z,3.95
2022-10-02T05:13:02.331Z,3.15
2022-10-02T05:18:45.469Z,3.03
2022-10-02T05:27:44.996Z,3.20
2022-10-02T05:33:07.085Z,3.62
2022-10-02T05:39:06.495Z,2.25
2022-10-02T05:44:17.462Z,3.08
2022-10-02T05:49:24.764Z,2.10
2022-10-02T05:55:49.103Z,1.80
2022-10-02T06:01:07.224Z,1.77
2022-10-02T06:06:28.176Z,1.90
2022-10-02T06:11:49.663Z,2.45
2022-10-02T06:23:40.319Z,2.40
2022-10-02T06:28:50.409Z,1.62
2022-10-02T06:33:52.222Z,1.37
2022-10-02T06:40:42.115Z,1.40
2022-10-02T06:47:24.531Z,2.25
2022-10-02T06:55:43.548Z,1.65
2022-10-02T07:01:17.938Z,1.30
2022-10-02T07:09:46.702Z,1.23
2022-10-02T07:17:47.864Z,0.80
2022-10-02T07:26:08.527Z,0.77
2022-10-02T07:32:52.083Z,1.00
2022-10-02T07:45:28.717Z,0.40
2022-10-02T07:50:51.201Z,0.95
2022-10-02T07:55:55.041Z,2.37
2022-10-02T08:01:07.499Z,3.58
2022-10-02T08:06:08.688Z,1.87
2022-10-02T08:11:21.479Z,2.50
2022-10-02T08:16:27.871Z,4.70
2022-10-02T08:21:33.549Z,1.92
2022-10-02T08:26:42.461Z,1.70
2022-10-02T08:31:43.701Z,3.85
2022-10-02T08:40:08.657Z,0.60
2022-10-02T08:46:54.340Z,0.20
2022-10-02T08:53:38.431Z,0.20
2022-10-02T09:00:21.991Z,0.35
2022-10-02T09:05:51.802Z,0.30
2022-10-02T09:13:45.777Z,0.90
2022-10-02T09:19:31.758Z,0.30
2022-10-02T09:31:49.046Z,0.80
2022-10-02T09:38:08.246Z,0.60
2022-10-02T09:44:09.868Z,1.17
2022-10-02T09:49:41.806Z,0.90
2022-10-02T10:00:16.020Z,1.30
2022-10-02T10:05:59.223Z,2.33
2022-10-02T10:14:29.775Z,3.20
2022-10-02T10:26:36.313Z,0.65
2022-10-02T10:32:21.278Z,0.90
2022-10-02T10:39:05.163Z,0.50
2022-10-02T10:46:05.795Z,2.62
2022-10-02T10:53:10.979Z,1.42
2022-10-02T10:59:44.691Z,0.62
2022-10-02T11:08:06.208Z,0.30
2022-10-02T11:13:25.019Z,0.30
2022-10-02T11:18:58.047Z,0.10
2022-10-02T11:24:26.254Z,7.60
2022-10-02T11:29:55.771Z,1.02
2022-10-02T11:35:29.367Z,0.43
2022-10-02T11:41:00.961Z,0.40
2022-10-02T11:49:19.867Z,0.25
2022-10-02T11:54:52.431Z,1.30
2022-10-02T12:01:13.048Z,0.40
2022-10-02T12:06:41.450Z,3.95
2022-10-02T12:18:57.267Z,2.55
2022-10-02T12:27:11.473Z,0.80
2022-10-02T12:32:42.081Z,0.30
2022-10-02T12:38:12.361Z,0.88
2022-10-02T12:44:21.225Z,0.68
2022-10-02T12:59:42.790Z,0.40
2022-10-02T13:05:22.497Z,0.30
2022-10-02T13:10:27.409Z,0.95
2022-10-02T13:15:58.600Z,0.70
2022-10-02T13:24:43.244Z,0.52
2022-10-02T13:30:32.884Z,0.50
2022-10-02T13:36:06.284Z,0.37
2022-10-02T13:53:30.979Z,0.80
2022-10-02T13:59:09.088Z,0.40
2022-10-02T14:04:29.322Z,0.52
2022-10-02T14:09:58.043Z,0.52
2022-10-02T14:15:43.305Z,1.85
2022-10-02T14:21:33.298Z,0.73
2022-10-02T14:27:08.334Z,1.60
2022-10-02T14:32:54.173Z,1.52
2022-10-02T14:39:22.398Z,1.23
2022-10-02T14:52:42.507Z,2.83
2022-10-02T14:58:06.532Z,3.00
2022-10-02T15:03:27.592Z,1.83
2022-10-02T15:08:42.226Z,1.35
2022-10-02T15:13:48.239Z,1.55
2022-10-02T15:19:02.844Z,2.22
2022-10-02T15:30:56.620Z,4.97
2022-10-02T15:38:51.619Z,3.90
2022-10-02T15:44:36.494Z,2.45
2022-10-02T15:56:43.243Z,8.02
2022-10-02T16:03:42.754Z,1.58
2022-10-02T16:11:59.144Z,5.43
2022-10-02T16:20:29.324Z,7.00
2022-10-02T16:28:57.575Z,2.30
2022-10-02T16:34:19.965Z,9.55
2022-10-02T16:39:49.958Z,3.97
2022-10-02T16:47:52.373Z,3.10
2022-10-02T16:53:10.838Z,3.03
2022-10-02T16:58:27.105Z,2.97
2022-10-02T17:03:36.477Z,4.45
2022-10-02T17:10:04.263Z,12.57
2022-10-02T17:16:58.336Z,5.68
2022-10-02T17:22:07.925Z,3.83
2022-10-02T17:28:01.186Z,3.72
2022-10-02T17:33:21.552Z,3.20
2022-10-02T17:38:46.625Z,2.62
2022-10-02T17:44:15.187Z,5.15
2022-10-02T17:49:31.157Z,3.33
2022-10-02T17:55:11.469Z,18.70
2022-10-02T18:00:23.113Z,10.70
2022-10-02T18:06:19.296Z,7.00
2022-10-02T18:16:01.678Z,6.55
2022-10-02T18:21:37.037Z,4.25
2022-10-02T18:29:36.285Z,4.18
2022-10-02T18:35:41.397Z,6.75
2022-10-02T18:41:18.926Z,10.25
2022-10-02T18:49:23.276Z,4.50
2022-10-02T18:54:42.795Z,3.73
2022-10-02T19:03:23.953Z,4.32
2022-10-02T19:08:55.156Z,4.57
2022-10-02T19:14:01.511Z,4.80
2022-10-02T19:19:28.026Z,4.37
2022-10-02T19:24:36.958Z,4.07
2022-10-02T19:29:52.814Z,4.40
2022-10-02T19:35:06.867Z,4.65
2022-10-02T19:40:18.378Z,5.55
2022-10-02T19:45:26.245Z,6.70
2022-10-02T19:50:42.396Z,5.70
2022-10-02T19:55:45.610Z,5.47
2022-10-02T20:00:50.011Z,5.53
2022-10-02T20:05:56.623Z,6.40
2022-10-02T20:11:44.489Z,6.05
2022-10-02T20:17:03.878Z,6.32
2022-10-02T20:22:15.120Z,7.20
2022-10-02T20:29:59.740Z,7.18
2022-10-02T20:35:35.549Z,6.77
2022-10-02T20:40:39.528Z,8.10
2022-10-02T20:51:01.360Z,6.95
2022-10-02T20:56:41.774Z,7.12
2022-10-02T21:02:23.390Z,9.48
2022-10-02T21:08:02.941Z,8.05
2022-10-02T21:16:13.989Z,8.20
2022-10-02T21:22:31.264Z,8.02
2022-10-02T21:29:01.028Z,8.15
2022-10-02T21:34:30.261Z,7.93
2022-10-02T21:40:37.459Z,8.18
2022-10-02T21:50:32.027Z,7.75
2022-10-02T21:56:12.243Z,9.23
2022-10-02T22:02:07.797Z,10.55
2022-10-02T22:07:21.607Z,9.00
2022-10-02T22:13:44.665Z,8.23
2022-10-02T22:20:45.716Z,10.25
2022-10-02T22:27:42.245Z,9.20
2022-10-02T22:33:30.982Z,8.60
2022-10-02T22:39:48.216Z,8.57
2022-10-02T22:44:55.595Z,8.35
2022-10-02T22:50:08.032Z,8.38
2022-10-02T22:55:33.409Z,8.53
2022-10-02T23:01:06.060Z,7.82
2022-10-02T23:06:30.683Z,8.40
2022-10-02T23:11:54.539Z,9.05
2022-10-02T23:17:16.168Z,10.43
2022-10-02T23:22:28.983Z,9.75
2022-10-02T23:27:50.945Z,9.73
2022-10-02T23:33:03.395Z,9.77
2022-10-02T23:39:53.368Z,10.33
2022-10-02T23:45:46.360Z,10.18
2022-10-02T23:56:58.088Z,9.37
